Aérodrome :
LOGIN :

S'inscrire | Disclaimer

   EN    FR    IT 

 










Légende :    VFR   VFR Marginal   IFR   IFR Intensif   IFR Très Intensif
Visi : 
Plafond : 
>= 8 km
>= 3000ft
5 à 8 km
1000 à 3000 ft
1500m à 5 km
500 à 1000 ft
800 à 1500m
200 à 500 ft
< 800m
< 200 ft
Symboles :   Orages  Brouillard  Fortes neiges  Fortes précipitations  Vent > 20 kt
SIGMETs :   Divers  Orages  Givrage  Turbulence  Onde Orograph.  Cendres Volcan.






- Altitude de l'aérodrome : 376 ft


LHKE - Kecskemét

DERNIER METAR :
  • 030915Z 08008KT 8000 NSC 00/M03 Q1014 R12/01//95 TEMPO -RA RMK BLU

METARs EXPIRÉS :
  • 030845Z 07008KT 8000 NSC M01/M03 Q1014 R12/01//95 NOSIG RMK BLU
  • 030815Z 06010KT 7000 NSC M01/M03 Q1014 R12/01//95 NOSIG RMK WHT
  • 030745Z 06008KT 6000 NSC M02/M04 Q1014 R12/01//95 TEMPO -FZRA RMK WHT
  • 030715Z 08008KT 6000 NSC M02/M04 Q1014 R12/01//95 TEMPO -FZRA RMK WHT
  • 030645Z 07012KT 6000 NSC M02/M04 Q1014 R12/01//95 NOSIG RMK WHT

TAF TAF LHKE
Valide du 03 à 09h jusqu'au 03 à 18h UTC


030815Z 0309/0318 09010KT 8000 NSC
TEMPO 0309/0318 -RA SCT025 OVC083



MET'MAP, la Météo Aéronautique d'un coup d'oeil ! - Copyright ORBIFLY Décembre 2007 - Disclaimer

ORBIFLY MET'MAP TEAM :

Programmation & Développement : Alexandra Zaïnal
Sur une idée originale de : Baudouin d'Aumeries
Assistance à la programmation : Marc-Olivier Méhu
Soutien technique & logistique : Manuel Goepfert

Contact : metmap@orbifly.com




SOURCES & CREDITS :

   NOAA